Terminal Aerodrome Forecast
Issued by NWS Grand Forks, ND

Home | Current Version | Previous Version | Text Only | Print | Product List | Glossary Off
Versions: 1 2 3 4 5 6 7 8 9 10 11 12 13 14 15 16 17 18 19 20

000
FTUS43 KFGF 242300
TAFGFK
TAF
KGFK 242320Z 2500/2524 23017KT P6SM SCT040
     FM251500 26018KT P6SM OVC040=

USA.gov is the U.S. government's official web portal to all federal, state and local government web resources and services.